createdAt,value
2018-04-09T00:00:23.596Z,25.20
2018-04-09T00:01:23.568Z,24.10
2018-04-09T00:02:23.553Z,25.00
2018-04-09T00:03:23.520Z,24.50
2018-04-09T00:04:23.518Z,25.30
2018-04-09T00:05:23.470Z,25.70
2018-04-09T00:06:23.446Z,25.70
2018-04-09T00:07:23.423Z,25.60
2018-04-09T00:08:23.400Z,24.60
2018-04-09T00:09:23.373Z,23.50
2018-04-09T00:10:23.349Z,24.40
2018-04-09T00:11:23.325Z,25.30
2018-04-09T00:12:23.301Z,26.40
2018-04-09T00:13:23.281Z,26.00
2018-04-09T00:14:23.258Z,25.60
2018-04-09T00:15:23.257Z,26.10
2018-04-09T00:16:23.203Z,26.70
2018-04-09T00:17:23.179Z,26.40
2018-04-09T00:18:23.154Z,28.30
2018-04-09T00:19:23.130Z,27.50
2018-04-09T00:20:23.106Z,26.40
2018-04-09T00:21:23.081Z,27.50
2018-04-09T00:22:23.058Z,27.60
2018-04-09T00:23:23.032Z,26.10
2018-04-09T00:24:23.009Z,27.30
2018-04-09T00:25:22.988Z,26.70
2018-04-09T00:26:22.959Z,27.30
2018-04-09T00:27:22.935Z,27.30
2018-04-09T00:28:22.909Z,26.90
2018-04-09T00:29:22.885Z,27.90
2018-04-09T00:30:22.861Z,26.20
2018-04-09T00:31:22.838Z,26.80
2018-04-09T00:32:22.811Z,28.00
2018-04-09T00:33:22.793Z,27.30
2018-04-09T00:34:22.767Z,27.10
2018-04-09T00:35:22.739Z,27.60
2018-04-09T00:36:22.714Z,26.80
2018-04-09T00:37:22.690Z,27.40
2018-04-09T00:38:22.665Z,27.40
2018-04-09T00:39:22.645Z,27.90
2018-04-09T00:40:22.617Z,26.70
2018-04-09T00:41:22.594Z,27.70
2018-04-09T00:42:22.568Z,27.70
2018-04-09T00:43:22.543Z,27.10
2018-04-09T00:44:22.526Z,27.40
2018-04-09T00:45:22.494Z,27.80
2018-04-09T00:46:22.470Z,27.70
2018-04-09T00:47:22.445Z,28.90
2018-04-09T00:48:22.420Z,27.10
2018-04-09T00:49:22.398Z,28.20
2018-04-09T00:50:22.372Z,28.60
2018-04-09T00:51:22.350Z,28.40
2018-04-09T00:52:22.323Z,29.00
2018-04-09T00:53:22.298Z,28.40
2018-04-09T00:54:22.274Z,29.40
2018-04-09T00:55:22.251Z,28.10
2018-04-09T00:56:22.224Z,28.70
2018-04-09T00:57:22.501Z,28.90
2018-04-09T00:58:22.175Z,29.40
2018-04-09T00:59:22.151Z,29.90
2018-04-09T01:00:22.131Z,29.30
2018-04-09T01:01:22.101Z,29.90
2018-04-09T01:02:22.077Z,30.70
2018-04-09T01:03:22.063Z,30.80
2018-04-09T01:04:22.031Z,31.60
2018-04-09T01:05:22.007Z,30.70
2018-04-09T01:06:21.978Z,29.50
2018-04-09T01:07:21.955Z,28.60
2018-04-09T01:08:21.929Z,29.00
2018-04-09T01:09:21.906Z,29.30
2018-04-09T01:10:21.879Z,29.70
2018-04-09T01:11:21.856Z,29.50
2018-04-09T01:12:21.830Z,30.30
2018-04-09T01:13:21.812Z,30.80
2018-04-09T01:14:21.781Z,30.50
2018-04-09T01:15:21.761Z,31.40
2018-04-09T01:16:21.730Z,30.70
2018-04-09T01:17:21.707Z,30.90
2018-04-09T01:18:21.683Z,30.90
2018-04-09T01:19:21.659Z,31.50
2018-04-09T01:20:21.632Z,30.10
2018-04-09T01:21:21.608Z,30.80
2018-04-09T01:22:21.583Z,32.00
2018-04-09T01:23:21.559Z,31.00
2018-04-09T01:24:21.557Z,33.20
2018-04-09T01:25:21.510Z,34.30
2018-04-09T01:26:21.487Z,36.90
2018-04-09T01:27:21.459Z,38.50
2018-04-09T01:28:21.437Z,41.00
2018-04-09T01:29:21.410Z,39.10
2018-04-09T01:30:21.385Z,36.60
2018-04-09T01:31:21.360Z,36.20
2018-04-09T01:32:21.336Z,36.20
2018-04-09T01:33:21.310Z,34.40
2018-04-09T01:34:21.287Z,36.40
2018-04-09T01:35:21.262Z,35.80
2018-04-09T01:36:21.236Z,32.90
2018-04-09T01:37:21.217Z,33.60
2018-04-09T01:38:21.190Z,31.10
2018-04-09T01:39:21.162Z,32.80
2018-04-09T01:40:21.136Z,31.80
2018-04-09T01:41:21.111Z,32.80
2018-04-09T01:42:21.090Z,33.40
2018-04-09T01:43:21.062Z,33.00
2018-04-09T01:44:21.037Z,34.90
2018-04-09T01:45:21.011Z,33.50
2018-04-09T01:46:20.986Z,32.80
2018-04-09T01:47:20.962Z,34.30
2018-04-09T01:48:20.936Z,34.70
2018-04-09T01:49:20.911Z,33.80
2018-04-09T01:50:20.886Z,34.70
2018-04-09T01:51:20.861Z,34.70
2018-04-09T01:52:20.835Z,35.00
2018-04-09T01:53:20.816Z,33.80
2018-04-09T01:54:20.795Z,34.80
2018-04-09T01:55:20.766Z,34.20
2018-04-09T01:56:20.736Z,34.00
2018-04-09T01:57:20.710Z,33.50
2018-04-09T01:58:20.686Z,33.60
2018-04-09T01:59:20.661Z,34.10
2018-04-09T02:00:20.637Z,33.80
2018-04-09T02:01:20.610Z,33.20
2018-04-09T02:02:20.585Z,33.70
2018-04-09T02:03:20.563Z,32.90
2018-04-09T02:04:20.534Z,33.40
2018-04-09T02:05:20.512Z,32.80
2018-04-09T02:06:20.496Z,35.00
2018-04-09T02:07:20.464Z,33.90
2018-04-09T02:08:20.434Z,33.90
2018-04-09T02:09:20.409Z,34.00
2018-04-09T02:10:20.384Z,33.80
2018-04-09T02:11:20.359Z,33.80
2018-04-09T02:12:20.333Z,33.90
2018-04-09T02:13:20.308Z,34.30
2018-04-09T02:14:20.283Z,34.20
2018-04-09T02:15:20.259Z,34.70
2018-04-09T02:16:20.234Z,33.90
2018-04-09T02:17:20.207Z,34.60
2018-04-09T02:18:20.482Z,34.00
2018-04-09T02:19:20.157Z,34.50
2018-04-09T02:20:20.131Z,34.40
2018-04-09T02:21:20.113Z,34.90
2018-04-09T02:22:20.086Z,35.60
2018-04-09T02:23:20.056Z,36.30
2018-04-09T02:24:20.030Z,34.30
2018-04-09T02:25:20.004Z,35.00
2018-04-09T02:26:19.979Z,35.90
2018-04-09T02:27:19.958Z,35.70
2018-04-09T02:28:19.928Z,34.80
2018-04-09T02:29:19.903Z,34.80
2018-04-09T02:30:19.878Z,34.60
2018-04-09T02:31:19.858Z,35.50
2018-04-09T02:32:19.827Z,34.90
2018-04-09T02:33:19.803Z,34.30
2018-04-09T02:34:19.778Z,34.30
2018-04-09T02:35:19.752Z,35.00
2018-04-09T02:36:20.026Z,35.20
2018-04-09T02:37:19.703Z,35.00
2018-04-09T02:38:19.676Z,36.30
2018-04-09T02:39:19.651Z,34.90
2018-04-09T02:40:19.625Z,34.90
2018-04-09T02:41:19.602Z,35.60
2018-04-09T02:42:19.578Z,35.60
2018-04-09T02:43:19.548Z,34.10
2018-04-09T02:44:19.523Z,35.70
2018-04-09T02:45:19.499Z,35.40
2018-04-09T02:46:19.474Z,35.50
2018-04-09T02:47:19.448Z,35.60
2018-04-09T02:48:19.421Z,35.20
2018-04-09T02:49:19.405Z,35.90
2018-04-09T02:50:19.371Z,36.80
2018-04-09T02:51:19.347Z,35.30
2018-04-09T02:52:19.325Z,36.50
2018-04-09T02:53:19.294Z,36.70
2018-04-09T02:54:19.522Z,35.20
2018-04-09T02:55:19.247Z,36.30
2018-04-09T02:56:19.218Z,36.10
2018-04-09T02:57:19.192Z,37.40
2018-04-09T02:58:19.167Z,35.30
2018-04-09T02:59:19.142Z,36.60
2018-04-09T03:00:19.122Z,36.40
2018-04-09T03:01:19.092Z,35.50
2018-04-09T03:02:19.070Z,36.10
2018-04-09T03:03:19.040Z,36.80
2018-04-09T03:04:19.014Z,35.00
2018-04-09T03:05:18.990Z,36.80
2018-04-09T03:06:18.963Z,35.80
2018-04-09T03:07:18.939Z,34.40
2018-04-09T03:08:18.919Z,36.30
2018-04-09T03:09:18.929Z,38.00
2018-04-09T03:10:18.869Z,40.30
2018-04-09T03:11:18.836Z,40.80
2018-04-09T03:12:18.810Z,40.50
2018-04-09T03:13:18.808Z,37.60
2018-04-09T03:14:18.759Z,36.40
2018-04-09T03:15:18.734Z,36.50
2018-04-09T03:16:18.707Z,38.00
2018-04-09T03:17:18.682Z,36.50
2018-04-09T03:18:18.657Z,36.60
2018-04-09T03:19:18.632Z,37.00
2018-04-09T03:20:18.608Z,38.30
2018-04-09T03:21:18.601Z,40.90
2018-04-09T03:22:18.554Z,41.00
2018-04-09T03:23:18.528Z,43.00
2018-04-09T03:24:18.503Z,44.10
2018-04-09T03:25:18.476Z,42.30
2018-04-09T03:26:18.458Z,42.20
2018-04-09T03:27:18.429Z,42.40
2018-04-09T03:28:18.399Z,40.10
2018-04-09T03:29:18.374Z,40.10
2018-04-09T03:30:18.353Z,38.70
2018-04-09T03:31:18.329Z,39.00
2018-04-09T03:32:18.297Z,38.50
2018-04-09T03:33:18.272Z,36.60
2018-04-09T03:34:18.246Z,38.70
2018-04-09T03:35:18.222Z,37.10
2018-04-09T03:36:18.198Z,37.30
2018-04-09T03:37:18.168Z,38.70
2018-04-09T03:38:18.146Z,38.50
2018-04-09T03:39:18.119Z,38.00
2018-04-09T03:40:18.092Z,36.90
2018-04-09T03:41:18.070Z,37.80
2018-04-09T03:42:18.042Z,36.40
2018-04-09T03:43:18.016Z,36.10
2018-04-09T03:44:17.989Z,35.80
2018-04-09T03:45:17.964Z,35.00
2018-04-09T03:46:17.937Z,35.40
2018-04-09T03:47:17.913Z,37.60
2018-04-09T03:48:17.886Z,37.10
2018-04-09T03:49:17.861Z,35.80
2018-04-09T03:50:17.835Z,36.50
2018-04-09T03:51:17.813Z,37.60
2018-04-09T03:52:17.783Z,36.50
2018-04-09T03:53:17.761Z,36.20
2018-04-09T03:54:17.732Z,37.40
2018-04-09T03:55:17.707Z,37.10
2018-04-09T03:56:17.680Z,36.70
2018-04-09T03:57:17.654Z,37.00
2018-04-09T03:58:17.695Z,36.40
2018-04-09T03:59:17.603Z,36.90
2018-04-09T04:00:17.578Z,37.20
2018-04-09T04:01:17.556Z,38.00
2018-04-09T04:02:17.527Z,35.50
2018-04-09T04:03:17.500Z,37.10
2018-04-09T04:04:17.479Z,36.80
2018-04-09T04:05:17.449Z,37.10
2018-04-09T04:06:17.423Z,37.80
2018-04-09T04:07:17.402Z,37.70
2018-04-09T04:08:17.372Z,37.00
2018-04-09T04:09:17.345Z,37.20
2018-04-09T04:10:17.624Z,36.60
2018-04-09T04:11:17.295Z,37.70
2018-04-09T04:12:17.268Z,38.00
2018-04-09T04:13:17.242Z,37.20
2018-04-09T04:14:17.218Z,35.90
2018-04-09T04:15:17.190Z,38.20
2018-04-09T04:16:17.166Z,38.20
2018-04-09T04:17:17.138Z,38.00
2018-04-09T04:18:17.112Z,39.50
2018-04-09T04:19:17.088Z,38.40
2018-04-09T04:20:17.065Z,37.80
2018-04-09T04:21:17.036Z,38.70
2018-04-09T04:22:17.010Z,38.00
2018-04-09T04:23:16.985Z,38.30
2018-04-09T04:24:16.960Z,39.30
2018-04-09T04:25:16.933Z,38.30
2018-04-09T04:26:16.906Z,39.20
2018-04-09T04:27:16.884Z,37.40
2018-04-09T04:28:16.853Z,39.80
2018-04-09T04:29:16.828Z,40.20
2018-04-09T04:30:16.803Z,41.00
2018-04-09T04:31:16.776Z,39.90
2018-04-09T04:32:16.749Z,40.10
2018-04-09T04:33:16.723Z,38.80
2018-04-09T04:34:16.698Z,40.20
2018-04-09T04:35:16.673Z,39.20
2018-04-09T04:36:16.645Z,40.30
2018-04-09T04:37:16.622Z,40.30
2018-04-09T04:38:16.593Z,39.40
2018-04-09T04:39:16.605Z,41.50
2018-04-09T04:40:16.541Z,39.80
2018-04-09T04:41:16.521Z,40.50
2018-04-09T04:42:16.490Z,41.20
2018-04-09T04:43:16.464Z,40.40
2018-04-09T04:44:16.437Z,40.30
2018-04-09T04:45:16.412Z,41.00
2018-04-09T04:46:16.386Z,40.60
2018-04-09T04:47:16.360Z,40.90
2018-04-09T04:48:16.336Z,40.80
2018-04-09T04:49:16.307Z,41.30
2018-04-09T04:50:16.282Z,40.80
2018-04-09T04:51:16.256Z,40.70
2018-04-09T04:52:16.233Z,40.00
2018-04-09T04:53:16.204Z,40.30
2018-04-09T04:54:16.188Z,40.70
2018-04-09T04:55:16.152Z,39.60
2018-04-09T04:56:16.128Z,41.20
2018-04-09T04:57:16.105Z,41.30
2018-04-09T04:58:16.074Z,40.50
2018-04-09T04:59:16.048Z,40.00
2018-04-09T05:00:16.021Z,41.60
2018-04-09T05:01:15.996Z,42.00
2018-04-09T05:02:15.970Z,41.30
2018-04-09T05:03:15.946Z,42.00
2018-04-09T05:04:15.917Z,41.30
2018-04-09T05:05:15.891Z,43.00
2018-04-09T05:06:15.869Z,40.80
2018-04-09T05:07:15.842Z,40.50
2018-04-09T05:08:15.814Z,42.40
2018-04-09T05:09:15.789Z,42.80
2018-04-09T05:10:15.766Z,40.40
2018-04-09T05:11:15.737Z,40.30
2018-04-09T05:12:15.710Z,41.30
2018-04-09T05:13:15.684Z,38.50
2018-04-09T05:14:15.667Z,36.70
2018-04-09T05:15:15.634Z,40.10
2018-04-09T05:16:15.607Z,42.10
2018-04-09T05:17:15.582Z,42.20
2018-04-09T05:18:15.559Z,42.10
2018-04-09T05:19:15.830Z,40.40
2018-04-09T05:20:15.503Z,40.40
2018-04-09T05:21:15.485Z,41.80
2018-04-09T05:22:15.467Z,41.90
2018-04-09T05:23:15.427Z,41.20
2018-04-09T05:24:15.401Z,41.30
2018-04-09T05:25:15.375Z,40.90
2018-04-09T05:26:15.349Z,42.10
2018-04-09T05:27:15.328Z,40.30
2018-04-09T05:28:15.301Z,39.60
2018-04-09T05:29:15.272Z,40.00
2018-04-09T05:30:15.260Z,41.60
2018-04-09T05:31:15.222Z,39.70
2018-04-09T05:32:15.197Z,39.90
2018-04-09T05:33:15.175Z,39.90
2018-04-09T05:34:15.145Z,39.40
2018-04-09T05:35:15.120Z,39.20
2018-04-09T05:36:15.100Z,40.20
2018-04-09T05:37:15.068Z,39.50
2018-04-09T05:38:15.045Z,39.20
2018-04-09T05:39:15.021Z,38.30
2018-04-09T05:40:14.992Z,37.70
2018-04-09T05:41:14.969Z,38.60
2018-04-09T05:42:14.950Z,39.40
2018-04-09T05:43:14.918Z,38.80
2018-04-09T05:44:14.897Z,37.70
2018-04-09T05:45:14.868Z,39.10
2018-04-09T05:46:14.851Z,39.40
2018-04-09T05:47:14.820Z,38.00
2018-04-09T05:48:14.793Z,38.40
2018-04-09T05:49:14.768Z,39.50
2018-04-09T05:50:14.744Z,40.90
2018-04-09T05:51:14.723Z,41.00
2018-04-09T05:52:14.694Z,40.80
2018-04-09T05:53:14.671Z,41.00
2018-04-09T05:54:14.647Z,41.80
2018-04-09T05:55:14.621Z,42.60
2018-04-09T05:56:14.597Z,41.80
2018-04-09T05:57:14.572Z,40.80
2018-04-09T05:58:14.549Z,41.30
2018-04-09T05:59:14.524Z,42.00
2018-04-09T06:00:14.499Z,43.10
2018-04-09T06:01:14.475Z,41.50
2018-04-09T06:02:14.451Z,40.20
2018-04-09T06:03:14.427Z,40.00
2018-04-09T06:04:14.401Z,39.30
2018-04-09T06:05:14.380Z,38.60
2018-04-09T06:06:14.353Z,39.00
2018-04-09T06:07:14.330Z,40.60
2018-04-09T06:08:14.322Z,40.40
2018-04-09T06:09:14.281Z,39.40
2018-04-09T06:10:14.263Z,41.00
2018-04-09T06:11:14.234Z,39.70
2018-04-09T06:12:14.212Z,40.70
2018-04-09T06:13:14.187Z,41.70
2018-04-09T06:14:14.161Z,40.00
2018-04-09T06:15:14.137Z,41.40
2018-04-09T06:16:14.242Z,40.60
2018-04-09T06:17:14.088Z,40.30
2018-04-09T06:18:14.078Z,39.50
2018-04-09T06:19:14.042Z,40.60
2018-04-09T06:20:14.017Z,38.60
2018-04-09T06:21:13.993Z,39.70
2018-04-09T06:22:13.984Z,40.30
2018-04-09T06:23:13.946Z,41.30
2018-04-09T06:24:13.922Z,42.80
2018-04-09T06:25:13.898Z,42.30
2018-04-09T06:26:13.876Z,41.90
2018-04-09T06:27:13.875Z,41.00
2018-04-09T06:28:13.825Z,42.00
2018-04-09T06:29:13.802Z,41.30
2018-04-09T06:30:13.779Z,40.90
2018-04-09T06:31:13.755Z,41.00
2018-04-09T06:32:13.732Z,41.20
2018-04-09T06:33:13.708Z,40.60
2018-04-09T06:34:13.686Z,41.70
2018-04-09T06:35:13.676Z,40.20
2018-04-09T06:36:13.638Z,39.80
2018-04-09T06:37:13.616Z,40.30
2018-04-09T06:38:13.595Z,39.30
2018-04-09T06:39:13.571Z,39.10
2018-04-09T06:40:13.584Z,38.40
2018-04-09T06:41:13.526Z,38.90
2018-04-09T06:42:13.503Z,39.00
2018-04-09T06:43:13.482Z,38.10
2018-04-09T06:44:13.462Z,38.00
2018-04-09T06:45:13.447Z,40.00
2018-04-09T06:46:13.416Z,38.00
2018-04-09T06:47:13.398Z,37.60
2018-04-09T06:48:13.373Z,37.10
2018-04-09T06:49:13.353Z,37.20
2018-04-09T06:50:13.339Z,37.60
2018-04-09T06:51:13.330Z,38.00
2018-04-09T06:52:13.293Z,40.00
2018-04-09T06:53:13.277Z,42.60
2018-04-09T06:54:13.250Z,45.00
2018-04-09T06:55:13.231Z,45.70
2018-04-09T06:56:13.215Z,43.60
2018-04-09T06:57:13.190Z,40.40
2018-04-09T06:58:13.173Z,39.50
2018-04-09T06:59:13.151Z,40.00
2018-04-09T07:00:13.131Z,38.50
2018-04-09T07:01:13.112Z,37.20
2018-04-09T07:02:13.094Z,38.90
2018-04-09T07:03:13.071Z,38.10
2018-04-09T07:04:13.052Z,37.30
2018-04-09T07:05:13.041Z,37.80
2018-04-09T07:06:13.013Z,37.60
2018-04-09T07:07:12.994Z,37.50
2018-04-09T07:08:13.001Z,35.50
2018-04-09T07:09:12.954Z,37.50
2018-04-09T07:10:12.944Z,36.80
2018-04-09T07:11:12.946Z,36.80
2018-04-09T07:12:12.895Z,36.60
2018-04-09T07:13:12.876Z,36.70
2018-04-09T07:14:12.861Z,36.50
2018-04-09T07:15:12.845Z,36.50
2018-04-09T07:16:12.824Z,37.10
2018-04-09T07:17:12.801Z,37.40
2018-04-09T07:18:12.783Z,37.70
2018-04-09T07:19:12.761Z,37.60
2018-04-09T07:20:12.744Z,37.20
2018-04-09T07:21:12.723Z,39.10
2018-04-09T07:22:12.704Z,36.90
2018-04-09T07:23:12.686Z,37.90
2018-04-09T07:24:12.668Z,36.80
2018-04-09T07:25:12.648Z,36.70
2018-04-09T07:26:12.631Z,37.60
2018-04-09T07:27:12.614Z,37.00
2018-04-09T07:28:12.592Z,37.20
2018-04-09T07:29:12.580Z,38.90
2018-04-09T07:30:12.556Z,36.00
2018-04-09T07:31:12.590Z,36.60
2018-04-09T07:32:12.519Z,36.30
2018-04-09T07:33:12.508Z,37.60
2018-04-09T07:34:12.489Z,37.10
2018-04-09T07:35:12.474Z,36.00
2018-04-09T07:36:12.448Z,36.70
2018-04-09T07:37:12.440Z,34.90
2018-04-09T07:38:12.413Z,36.70
2018-04-09T07:39:12.396Z,35.90
2018-04-09T07:40:12.379Z,35.00
2018-04-09T07:41:12.361Z,37.20
2018-04-09T07:42:12.371Z,36.60
2018-04-09T07:43:12.327Z,36.90
2018-04-09T07:44:12.311Z,35.70
2018-04-09T07:45:12.310Z,36.10
2018-04-09T07:46:12.279Z,37.20
2018-04-09T07:47:12.262Z,34.40
2018-04-09T07:48:12.293Z,36.10
2018-04-09T07:49:12.232Z,35.20
2018-04-09T07:50:12.214Z,37.00
2018-04-09T07:51:12.205Z,36.00
2018-04-09T07:52:12.189Z,34.40
2018-04-09T07:53:12.166Z,35.50
2018-04-09T07:54:12.153Z,35.60
2018-04-09T07:55:12.142Z,36.40
2018-04-09T07:56:12.122Z,36.00
2018-04-09T07:57:12.108Z,37.00
2018-04-09T07:58:12.093Z,35.00
2018-04-09T07:59:12.075Z,34.50
2018-04-09T08:00:12.058Z,36.40
2018-04-09T08:01:12.055Z,36.70
2018-04-09T08:02:12.027Z,37.10
2018-04-09T08:03:12.021Z,36.90
2018-04-09T08:04:11.996Z,36.40
2018-04-09T08:05:11.980Z,37.10
2018-04-09T08:06:11.999Z,37.50
2018-04-09T08:07:11.948Z,39.70
2018-04-09T08:08:11.931Z,37.80
2018-04-09T08:09:11.918Z,37.00
2018-04-09T08:10:11.898Z,38.10
2018-04-09T08:11:11.882Z,36.90
2018-04-09T08:12:11.868Z,36.20
2018-04-09T08:13:11.849Z,36.80
2018-04-09T08:14:11.831Z,37.80
2018-04-09T08:15:11.815Z,35.90
2018-04-09T08:16:11.798Z,36.40
2018-04-09T08:17:11.782Z,36.10
2018-04-09T08:18:11.764Z,37.20
2018-04-09T08:19:11.767Z,35.60
2018-04-09T08:20:11.729Z,35.80
2018-04-09T08:21:11.712Z,35.60
2018-04-09T08:22:11.696Z,37.30
2018-04-09T08:23:11.680Z,37.90
2018-04-09T08:24:11.664Z,35.20
2018-04-09T08:25:11.652Z,36.40
2018-04-09T08:26:11.630Z,36.60
2018-04-09T08:27:11.636Z,35.30
2018-04-09T08:28:11.597Z,37.00
2018-04-09T08:29:11.581Z,38.30
2018-04-09T08:30:11.565Z,34.70
2018-04-09T08:31:11.549Z,36.60
2018-04-09T08:32:11.552Z,36.10
2018-04-09T08:33:11.517Z,37.40
2018-04-09T08:34:11.515Z,36.00
2018-04-09T08:35:11.495Z,37.30
2018-04-09T08:36:11.471Z,35.90
2018-04-09T08:37:11.456Z,35.60
2018-04-09T08:38:11.452Z,34.50
2018-04-09T08:39:11.430Z,35.10
2018-04-09T08:40:11.412Z,36.50
2018-04-09T08:41:11.398Z,37.50
2018-04-09T08:42:11.384Z,38.30
2018-04-09T08:43:11.379Z,37.40
2018-04-09T08:44:11.352Z,37.50
2018-04-09T08:45:11.337Z,37.20
2018-04-09T08:46:11.323Z,35.70
2018-04-09T08:47:11.313Z,38.30
2018-04-09T08:48:11.294Z,36.50
2018-04-09T08:49:11.280Z,36.90
2018-04-09T08:50:11.269Z,38.00
2018-04-09T08:51:11.252Z,38.20
2018-04-09T08:52:11.242Z,37.50
2018-04-09T08:53:11.229Z,38.70
2018-04-09T08:54:11.269Z,36.90
2018-04-09T08:55:11.197Z,38.30
2018-04-09T08:56:11.185Z,36.80
2018-04-09T08:57:11.168Z,38.90
2018-04-09T08:58:11.156Z,38.70
2018-04-09T08:59:11.147Z,39.10
2018-04-09T09:00:11.127Z,39.20
2018-04-09T09:01:11.115Z,37.30
2018-04-09T09:02:11.102Z,35.60
2018-04-09T09:03:11.090Z,38.90
2018-04-09T09:04:11.074Z,39.00
2018-04-09T09:05:11.062Z,37.70
2018-04-09T09:06:11.050Z,38.90
2018-04-09T09:07:11.039Z,37.20
2018-04-09T09:08:11.038Z,39.80
2018-04-09T09:09:11.030Z,39.10
2018-04-09T09:10:11.014Z,39.80
2018-04-09T09:11:10.986Z,38.70
2018-04-09T09:12:10.973Z,39.40
2018-04-09T09:13:10.966Z,38.10
2018-04-09T09:14:10.955Z,38.00
2018-04-09T09:15:10.936Z,39.20
2018-04-09T09:16:10.926Z,39.20
2018-04-09T09:17:10.911Z,39.60
2018-04-09T09:18:10.903Z,38.20
2018-04-09T09:19:10.887Z,38.40
2018-04-09T09:20:10.874Z,38.50
2018-04-09T09:21:10.904Z,38.70
2018-04-09T09:22:10.850Z,37.30
2018-04-09T09:23:10.847Z,38.30
2018-04-09T09:24:10.825Z,37.60
2018-04-09T09:25:10.819Z,37.60
2018-04-09T09:26:10.811Z,36.90
2018-04-09T09:27:10.790Z,37.60
2018-04-09T09:28:10.780Z,37.60
2018-04-09T09:29:10.766Z,38.60
2018-04-09T09:30:10.761Z,37.70
2018-04-09T09:31:10.742Z,39.10
2018-04-09T09:32:10.739Z,37.90
2018-04-09T09:33:10.718Z,37.40
2018-04-09T09:34:10.707Z,36.90
2018-04-09T09:35:10.699Z,37.50
2018-04-09T09:36:10.682Z,37.90
2018-04-09T09:37:10.702Z,38.70
2018-04-09T09:38:10.661Z,37.40
2018-04-09T09:39:10.647Z,37.80
2018-04-09T09:40:10.634Z,37.40
2018-04-09T09:41:10.624Z,38.60
2018-04-09T09:42:10.611Z,37.80
2018-04-09T09:43:10.599Z,37.70
2018-04-09T09:44:10.589Z,37.40
2018-04-09T09:45:10.618Z,37.70
2018-04-09T09:46:10.587Z,37.60
2018-04-09T09:47:10.582Z,36.70
2018-04-09T09:48:10.574Z,37.70
2018-04-09T09:49:10.633Z,36.10
2018-04-09T09:50:10.525Z,36.70
2018-04-09T09:51:10.511Z,35.80
2018-04-09T09:52:10.510Z,36.90
2018-04-09T09:53:10.491Z,36.80
2018-04-09T09:54:10.469Z,39.00
2018-04-09T09:55:10.549Z,37.00
2018-04-09T09:56:10.455Z,36.00
2018-04-09T09:57:10.437Z,36.10
2018-04-09T09:58:10.423Z,35.30
2018-04-09T09:59:10.427Z,35.70
2018-04-09T10:00:10.400Z,35.80
2018-04-09T10:01:10.393Z,36.20
2018-04-09T10:02:10.381Z,37.10
2018-04-09T10:03:10.370Z,37.30
2018-04-09T10:04:10.354Z,36.30
2018-04-09T10:05:10.343Z,36.00
2018-04-09T10:06:10.365Z,35.20
2018-04-09T10:07:10.403Z,37.00
2018-04-09T10:08:10.323Z,37.30
2018-04-09T10:09:10.333Z,36.60
2018-04-09T10:10:10.287Z,36.50
2018-04-09T10:11:10.285Z,38.10
2018-04-09T10:12:10.272Z,36.00
2018-04-09T10:13:10.253Z,36.10
2018-04-09T10:14:10.265Z,36.20
2018-04-09T10:15:10.252Z,38.50
2018-04-09T10:16:10.221Z,37.50
2018-04-09T10:17:10.210Z,37.80
2018-04-09T10:18:10.273Z,37.90
2018-04-09T10:19:10.206Z,37.20
2018-04-09T10:20:10.177Z,36.30
2018-04-09T10:21:10.165Z,35.80
2018-04-09T10:22:10.157Z,35.50
2018-04-09T10:23:10.164Z,35.30
2018-04-09T10:24:10.134Z,36.70
2018-04-09T10:25:10.131Z,35.60
2018-04-09T10:26:10.125Z,36.40
2018-04-09T10:27:10.104Z,37.30
2018-04-09T10:28:10.093Z,35.30
2018-04-09T10:29:10.084Z,35.10
2018-04-09T10:30:10.074Z,35.60
2018-04-09T10:31:10.065Z,36.10
2018-04-09T10:32:10.053Z,35.00
2018-04-09T10:33:10.086Z,34.60
2018-04-09T10:34:10.034Z,35.00
2018-04-09T10:35:10.032Z,34.90
2018-04-09T10:36:10.028Z,34.60
2018-04-09T10:37:10.005Z,36.00
2018-04-09T10:38:09.998Z,35.30
2018-04-09T10:39:10.003Z,34.30
2018-04-09T10:40:09.974Z,35.60
2018-04-09T10:41:09.967Z,34.50
2018-04-09T10:42:09.962Z,34.80
2018-04-09T10:43:09.946Z,33.90
2018-04-09T10:44:09.938Z,33.00
2018-04-09T10:45:09.926Z,33.70
2018-04-09T10:46:09.916Z,33.00
2018-04-09T10:47:09.947Z,33.10
2018-04-09T10:48:09.923Z,32.50
2018-04-09T10:49:09.904Z,31.20
2018-04-09T10:50:09.881Z,30.80
2018-04-09T10:51:09.869Z,32.80
2018-04-09T10:52:09.859Z,34.00
2018-04-09T10:53:09.850Z,32.40
2018-04-09T10:54:09.844Z,31.70
2018-04-09T10:55:09.832Z,32.20
2018-04-09T10:56:09.823Z,32.00
2018-04-09T10:57:09.821Z,32.70
2018-04-09T10:58:09.825Z,32.00
2018-04-09T10:59:09.799Z,33.50
2018-04-09T11:00:09.786Z,33.20
2018-04-09T11:01:09.796Z,33.50
2018-04-09T11:02:09.782Z,35.20
2018-04-09T11:03:09.760Z,34.90
2018-04-09T11:04:09.790Z,33.40
2018-04-09T11:05:09.749Z,36.50
2018-04-09T11:06:09.737Z,34.30
2018-04-09T11:07:09.758Z,32.90
2018-04-09T11:08:09.745Z,32.30
2018-04-09T11:09:09.714Z,32.30
2018-04-09T11:10:09.696Z,32.10
2018-04-09T11:11:09.687Z,32.60
2018-04-09T11:12:09.677Z,33.70
2018-04-09T11:13:09.668Z,32.60
2018-04-09T11:14:09.698Z,32.30
2018-04-09T11:15:09.650Z,32.40
2018-04-09T11:16:09.640Z,32.00
2018-04-09T11:17:09.663Z,33.00
2018-04-09T11:18:09.623Z,31.60
2018-04-09T11:19:09.637Z,32.60
2018-04-09T11:20:09.618Z,34.50
2018-04-09T11:21:09.611Z,32.80
2018-04-09T11:22:09.615Z,32.80
2018-04-09T11:23:09.655Z,33.00
2018-04-09T11:24:09.573Z,33.40
2018-04-09T11:25:09.554Z,32.90
2018-04-09T11:26:09.543Z,34.00
2018-04-09T11:27:09.537Z,33.00
2018-04-09T11:28:09.586Z,33.30
2018-04-09T11:29:09.514Z,33.10
2018-04-09T11:30:09.507Z,33.00
2018-04-09T11:31:09.494Z,33.70
2018-04-09T11:32:09.488Z,35.10
2018-04-09T11:33:09.477Z,33.80
2018-04-09T11:34:09.729Z,32.90
2018-04-09T11:35:09.455Z,34.30
2018-04-09T11:36:09.443Z,32.60
2018-04-09T11:37:09.453Z,34.30
2018-04-09T11:38:09.431Z,32.20
2018-04-09T11:39:09.423Z,32.40
2018-04-09T11:40:09.406Z,33.10
2018-04-09T11:41:09.395Z,32.40
2018-04-09T11:42:09.391Z,33.10
2018-04-09T11:43:09.421Z,33.20
2018-04-09T11:44:09.362Z,32.50
2018-04-09T11:45:09.358Z,33.00
2018-04-09T11:46:09.354Z,34.10
2018-04-09T11:47:09.362Z,32.60
2018-04-09T11:48:09.357Z,32.90
2018-04-09T11:49:09.316Z,32.80
2018-04-09T11:50:09.298Z,35.30
2018-04-09T11:51:09.288Z,34.30
2018-04-09T11:52:09.282Z,31.70
2018-04-09T11:53:09.295Z,31.50
2018-04-09T11:54:09.259Z,31.80
2018-04-09T11:55:09.248Z,34.30
2018-04-09T11:56:09.259Z,35.30
2018-04-09T11:57:09.251Z,33.80
2018-04-09T11:58:09.219Z,32.80
2018-04-09T11:59:09.208Z,32.60
2018-04-09T12:00:09.199Z,31.50
2018-04-09T12:01:09.188Z,33.20
2018-04-09T12:02:09.182Z,33.10
2018-04-09T12:03:09.171Z,32.60
2018-04-09T12:04:09.163Z,32.00
2018-04-09T12:05:09.151Z,32.20
2018-04-09T12:06:09.142Z,32.70
2018-04-09T12:07:09.137Z,32.30
2018-04-09T12:08:09.124Z,34.10
2018-04-09T12:09:09.115Z,32.30
2018-04-09T12:10:09.107Z,31.60
2018-04-09T12:11:09.109Z,31.10
2018-04-09T12:12:09.091Z,30.80
2018-04-09T12:13:09.084Z,31.70
2018-04-09T12:14:09.077Z,30.70
2018-04-09T12:15:09.076Z,31.80
2018-04-09T12:16:09.060Z,32.20
2018-04-09T12:17:09.088Z,30.40
2018-04-09T12:18:09.044Z,30.00
2018-04-09T12:19:09.035Z,32.00
2018-04-09T12:20:09.025Z,30.60
2018-04-09T12:21:09.020Z,31.30
2018-04-09T12:22:09.011Z,31.70
2018-04-09T12:23:08.999Z,30.10
2018-04-09T12:24:09.004Z,30.50
2018-04-09T12:25:09.018Z,32.40
2018-04-09T12:26:08.977Z,30.90
2018-04-09T12:27:09.032Z,30.00
2018-04-09T12:28:08.965Z,29.60
2018-04-09T12:29:08.943Z,30.70
2018-04-09T12:30:08.934Z,30.10
2018-04-09T12:31:08.930Z,30.40
2018-04-09T12:32:08.918Z,30.90
2018-04-09T12:33:08.907Z,31.20
2018-04-09T12:34:08.916Z,30.40
2018-04-09T12:35:08.887Z,30.50
2018-04-09T12:36:08.877Z,30.60
2018-04-09T12:37:08.873Z,30.60
2018-04-09T12:38:08.868Z,30.40
2018-04-09T12:39:08.871Z,30.10
2018-04-09T12:40:08.849Z,30.90
2018-04-09T12:41:08.833Z,31.90
2018-04-09T12:42:08.824Z,31.30
2018-04-09T12:43:08.816Z,29.40
2018-04-09T12:44:08.848Z,30.10
2018-04-09T12:45:08.811Z,33.10
2018-04-09T12:46:08.797Z,31.20
2018-04-09T12:47:08.794Z,27.60
2018-04-09T12:48:08.784Z,29.30
2018-04-09T12:49:08.795Z,28.70
2018-04-09T12:50:08.766Z,28.30
2018-04-09T12:51:08.748Z,29.10
2018-04-09T12:52:08.758Z,29.50